createdAt,value
2023-03-10T00:04:37.176Z,46.70
2023-03-10T00:09:38.646Z,47.03
2023-03-10T00:14:40.177Z,47.07
2023-03-10T00:19:41.615Z,46.61
2023-03-10T00:24:43.166Z,47.35
2023-03-10T00:29:44.642Z,47.04
2023-03-10T00:34:46.150Z,47.24
2023-03-10T00:39:51.648Z,47.92
2023-03-10T00:44:53.194Z,47.40
2023-03-10T00:49:54.753Z,47.97
2023-03-10T00:54:56.350Z,47.72
2023-03-10T00:59:57.857Z,47.53
2023-03-10T01:04:59.299Z,47.28
2023-03-10T01:10:00.757Z,47.62
2023-03-10T01:15:02.424Z,47.40
2023-03-10T01:20:05.205Z,47.83
2023-03-10T01:25:07.229Z,48.40
2023-03-10T01:30:10.002Z,48.98
2023-03-10T01:35:12.020Z,49.11
2023-03-10T01:40:15.456Z,49.82
2023-03-10T01:45:16.908Z,51.88
2023-03-10T01:50:19.550Z,51.77
2023-03-10T01:55:29.464Z,51.03
2023-03-10T02:00:31.082Z,50.23
2023-03-10T02:05:33.786Z,49.37
2023-03-10T02:10:36.272Z,49.71
2023-03-10T02:15:39.057Z,48.81
2023-03-10T02:21:09.833Z,49.79
2023-03-10T02:26:31.616Z,49.12
2023-03-10T02:31:33.765Z,49.58
2023-03-10T02:36:35.657Z,50.57
2023-03-10T02:41:40.036Z,52.34
2023-03-10T02:46:45.676Z,53.70
2023-03-10T02:51:47.419Z,53.80
2023-03-10T02:56:52.037Z,55.38
2023-03-10T03:01:54.348Z,57.44
2023-03-10T03:06:55.960Z,58.42
2023-03-10T03:11:57.825Z,60.16
2023-03-10T03:16:59.707Z,60.68
2023-03-10T03:22:02.006Z,62.43
2023-03-10T03:27:05.240Z,61.89
2023-03-10T03:32:07.439Z,62.86
2023-03-10T03:37:10.024Z,63.69
2023-03-10T03:42:13.804Z,64.63
2023-03-10T03:47:23.537Z,64.17
2023-03-10T03:52:25.386Z,65.07
2023-03-10T03:57:28.182Z,63.86
2023-03-10T04:02:29.863Z,63.58
2023-03-10T04:07:31.629Z,63.18
2023-03-10T04:12:34.015Z,62.97
2023-03-10T04:17:36.347Z,63.85
2023-03-10T04:22:38.275Z,63.55
2023-03-10T04:27:41.364Z,63.44
2023-03-10T04:32:43.805Z,63.79
2023-03-10T04:37:45.471Z,64.40
2023-03-10T04:42:48.774Z,64.67
2023-03-10T04:47:50.680Z,62.85
2023-03-10T04:52:52.322Z,63.14
2023-03-10T04:57:58.817Z,63.34
2023-03-10T05:03:00.606Z,64.21
2023-03-10T05:08:02.654Z,64.67
2023-03-10T05:13:05.467Z,66.43
2023-03-10T05:18:10.428Z,66.45
2023-03-10T05:23:12.066Z,66.76
2023-03-10T05:28:13.827Z,66.54
2023-03-10T05:33:16.524Z,65.93
2023-03-10T05:38:18.397Z,66.80
2023-03-10T05:43:20.344Z,66.23
2023-03-10T05:48:23.581Z,66.27
2023-03-10T05:53:25.297Z,66.05
2023-03-10T05:58:27.003Z,65.74
2023-03-10T06:03:29.298Z,66.80
2023-03-10T06:08:31.099Z,67.91
2023-03-10T06:13:32.729Z,67.96
2023-03-10T06:18:34.835Z,67.37
2023-03-10T06:23:36.882Z,66.63
2023-03-10T06:28:40.980Z,66.85
2023-03-10T06:33:42.768Z,67.57
2023-03-10T06:38:44.478Z,67.27
2023-03-10T06:43:46.328Z,67.07
2023-03-10T06:48:47.931Z,66.29
2023-03-10T06:53:49.838Z,64.72
2023-03-10T06:58:51.288Z,64.17
2023-03-10T07:03:53.688Z,60.90
2023-03-10T07:08:55.159Z,61.63
2023-03-10T07:13:56.751Z,62.43
2023-03-10T07:18:58.206Z,62.87
2023-03-10T07:23:59.725Z,63.82
2023-03-10T07:29:01.420Z,65.58
2023-03-10T07:34:03.066Z,67.57
2023-03-10T07:39:05.866Z,68.30
2023-03-10T07:44:07.557Z,68.08
2023-03-10T07:49:09.205Z,67.48
2023-03-10T07:54:13.614Z,67.28
2023-03-10T07:59:15.146Z,68.46
2023-03-10T08:04:16.816Z,68.88
2023-03-10T08:09:18.482Z,69.23
2023-03-10T08:14:21.080Z,69.79
2023-03-10T08:19:26.974Z,68.92
2023-03-10T08:24:28.536Z,69.90
2023-03-10T08:29:30.009Z,70.63
2023-03-10T08:34:33.551Z,69.24
2023-03-10T08:39:35.196Z,67.77
2023-03-10T08:44:36.824Z,67.64
2023-03-10T08:49:38.371Z,67.66
2023-03-10T08:54:39.924Z,67.39
2023-03-10T08:59:41.452Z,66.12
2023-03-10T09:04:43.481Z,65.35
2023-03-10T09:09:45.072Z,63.75
2023-03-10T09:14:47.278Z,62.55
2023-03-10T09:19:48.747Z,62.25
2023-03-10T09:24:50.210Z,60.85
2023-03-10T09:29:51.684Z,61.53
2023-03-10T09:34:53.551Z,61.03
2023-03-10T09:39:55.027Z,60.55
2023-03-10T09:45:13.211Z,58.69
2023-03-10T09:50:36.496Z,57.20
2023-03-10T09:55:47.387Z,57.81
2023-03-10T10:00:49.805Z,57.19
2023-03-10T10:05:53.150Z,57.28
2023-03-10T10:10:59.624Z,56.21
2023-03-10T10:16:33.901Z,56.96
2023-03-10T10:21:46.679Z,57.94
2023-03-10T10:26:48.418Z,58.95
2023-03-10T10:32:02.054Z,59.94
2023-03-10T10:37:21.909Z,61.13
2023-03-10T10:42:27.879Z,61.00
2023-03-10T10:47:32.268Z,62.68
2023-03-10T10:52:33.794Z,61.45
2023-03-10T10:57:37.385Z,62.44
2023-03-10T11:02:38.987Z,61.98
2023-03-10T11:07:40.647Z,64.06
2023-03-10T11:13:00.721Z,61.73
2023-03-10T11:18:33.808Z,62.08
2023-03-10T11:24:11.993Z,62.35
2023-03-10T11:29:22.850Z,62.15
2023-03-10T11:34:29.365Z,61.02
2023-03-10T11:39:51.111Z,60.99
2023-03-10T11:45:01.380Z,56.73
2023-03-10T11:50:18.449Z,58.33
2023-03-10T11:55:21.561Z,58.01
2023-03-10T12:00:34.518Z,56.82
2023-03-10T12:05:56.014Z,58.62
2023-03-10T12:11:01.133Z,59.64
2023-03-10T12:16:06.186Z,61.30
2023-03-10T12:21:28.630Z,62.50
2023-03-10T12:26:38.923Z,62.76
2023-03-10T12:31:40.409Z,63.35
2023-03-10T12:36:45.210Z,65.69
2023-03-10T12:41:48.096Z,63.77
2023-03-10T12:46:59.739Z,66.00
2023-03-10T12:52:06.996Z,66.05
2023-03-10T12:57:36.389Z,67.49
2023-03-10T13:02:51.118Z,68.81
2023-03-10T13:07:57.340Z,67.93
2023-03-10T13:13:04.272Z,68.40
2023-03-10T13:18:18.205Z,68.89
2023-03-10T13:23:34.684Z,68.79
2023-03-10T13:28:36.339Z,67.68
2023-03-10T13:33:52.307Z,68.53
2023-03-10T13:38:54.626Z,67.77
2023-03-10T13:43:56.188Z,65.57
2023-03-10T13:49:02.103Z,65.96
2023-03-10T13:54:32.608Z,63.83
2023-03-10T13:59:36.030Z,64.05
2023-03-10T14:04:43.208Z,64.34
2023-03-10T14:10:03.661Z,64.41
2023-03-10T14:15:25.333Z,64.21
2023-03-10T14:20:34.137Z,63.99
2023-03-10T14:25:35.599Z,64.26
2023-03-10T14:30:37.129Z,65.42
2023-03-10T14:35:38.629Z,64.91
2023-03-10T14:41:00.454Z,64.01
2023-03-10T14:46:02.176Z,64.53
2023-03-10T14:51:03.812Z,63.79
2023-03-10T14:56:05.920Z,63.16
2023-03-10T15:01:07.458Z,61.31
2023-03-10T15:06:13.479Z,61.57
2023-03-10T15:11:17.440Z,61.92
2023-03-10T15:16:23.027Z,64.00
2023-03-10T15:21:24.595Z,60.61
2023-03-10T15:26:26.183Z,60.32
2023-03-10T15:31:27.794Z,60.37
2023-03-10T15:36:29.262Z,52.84
2023-03-10T15:41:34.415Z,50.74
2023-03-10T15:46:35.975Z,51.65
2023-03-10T15:51:37.474Z,52.69
2023-03-10T15:56:39.613Z,53.57
2023-03-10T16:01:41.291Z,55.59
2023-03-10T16:06:42.792Z,55.19
2023-03-10T16:11:44.220Z,54.42
2023-03-10T16:16:45.702Z,55.03
2023-03-10T16:21:47.164Z,55.30
2023-03-10T16:26:48.968Z,55.60
2023-03-10T16:31:50.557Z,53.79
2023-03-10T16:36:52.033Z,54.39
2023-03-10T16:41:53.544Z,55.45
2023-03-10T16:46:55.085Z,55.01
2023-03-10T16:51:56.612Z,54.46
2023-03-10T16:56:58.088Z,55.64
2023-03-10T17:01:59.582Z,55.11
2023-03-10T17:07:01.024Z,56.07
2023-03-10T17:12:02.502Z,56.23
2023-03-10T17:17:06.532Z,55.94
2023-03-10T17:22:09.228Z,56.96
2023-03-10T17:27:10.713Z,57.63
2023-03-10T17:32:12.573Z,58.42
2023-03-10T17:37:14.078Z,60.81
2023-03-10T17:42:15.929Z,60.48
2023-03-10T17:47:17.443Z,62.34
2023-03-10T17:52:18.962Z,61.64
2023-03-10T17:57:20.880Z,61.85
2023-03-10T18:02:22.455Z,61.89
2023-03-10T18:07:24.113Z,59.85
2023-03-10T18:12:25.639Z,59.43
2023-03-10T18:17:27.151Z,57.87
2023-03-10T18:22:28.592Z,57.55
2023-03-10T18:27:33.425Z,56.83
2023-03-10T18:32:35.020Z,54.56
2023-03-10T18:37:36.527Z,53.61
2023-03-10T18:42:38.036Z,53.28
2023-03-10T18:47:39.567Z,54.12
2023-03-10T18:52:42.172Z,52.86
2023-03-10T18:57:44.533Z,54.32
2023-03-10T19:02:46.191Z,56.37
2023-03-10T19:07:47.736Z,64.08
2023-03-10T19:12:49.418Z,65.53
2023-03-10T19:17:50.971Z,65.14
2023-03-10T19:22:52.513Z,63.52
2023-03-10T19:27:53.976Z,62.41
2023-03-10T19:32:55.450Z,62.14
2023-03-10T19:37:56.994Z,61.47
2023-03-10T19:42:58.471Z,61.24
2023-03-10T19:47:59.984Z,62.32
2023-03-10T19:53:01.450Z,64.72
2023-03-10T19:58:02.891Z,67.82
2023-03-10T20:03:04.528Z,66.30
2023-03-10T20:08:06.072Z,66.41
2023-03-10T20:13:07.624Z,65.81
2023-03-10T20:18:09.126Z,64.67
2023-03-10T20:23:10.699Z,64.65
2023-03-10T20:28:13.247Z,63.04
2023-03-10T20:33:14.708Z,63.61
2023-03-10T20:38:16.332Z,63.13
2023-03-10T20:43:18.127Z,63.59
2023-03-10T20:48:19.621Z,62.61
2023-03-10T20:53:21.250Z,62.58
2023-03-10T20:58:22.717Z,62.12
2023-03-10T21:03:24.221Z,62.73
2023-03-10T21:08:25.688Z,61.93
2023-03-10T21:13:27.243Z,60.88
2023-03-10T21:18:28.692Z,60.72
2023-03-10T21:23:30.199Z,59.73
2023-03-10T21:28:42.113Z,60.07
2023-03-10T21:33:43.616Z,59.19
2023-03-10T21:38:45.295Z,58.82
2023-03-10T21:43:46.759Z,58.74
2023-03-10T21:48:48.233Z,57.23
2023-03-10T21:53:51.173Z,57.69
2023-03-10T21:58:52.728Z,58.12
2023-03-10T22:03:54.636Z,58.38
2023-03-10T22:08:56.222Z,58.67
2023-03-10T22:13:57.755Z,57.92
2023-03-10T22:18:59.270Z,57.76
2023-03-10T22:24:00.800Z,56.94
2023-03-10T22:29:02.340Z,58.15
2023-03-10T22:34:03.923Z,58.07
2023-03-10T22:39:05.377Z,57.30
2023-03-10T22:44:07.072Z,57.73
2023-03-10T22:49:08.568Z,57.52
2023-03-10T22:54:10.031Z,56.73
2023-03-10T22:59:11.539Z,57.58
2023-03-10T23:04:13.067Z,57.26
2023-03-10T23:09:14.606Z,57.72
2023-03-10T23:14:16.147Z,58.11
2023-03-10T23:19:17.591Z,56.99
2023-03-10T23:24:19.090Z,58.07
2023-03-10T23:29:20.606Z,57.31
2023-03-10T23:34:22.152Z,58.49
2023-03-10T23:39:24.089Z,57.68
2023-03-10T23:44:25.525Z,58.36
2023-03-10T23:49:27.077Z,56.80
2023-03-10T23:54:28.554Z,56.94
2023-03-10T23:59:30.054Z,56.71
